createdAt,value
2022-08-26T00:01:13.982Z,85.13
2022-08-26T00:06:49.379Z,84.92
2022-08-26T00:12:35.767Z,84.84
2022-08-26T00:15:18.215Z,84.87
2022-08-26T00:20:54.386Z,85.41
2022-08-26T00:26:30.065Z,85.83
2022-08-26T00:29:15.738Z,86.01
2022-08-26T00:34:51.182Z,86.08
2022-08-26T00:37:35.719Z,86.09
2022-08-26T00:43:11.136Z,86.22
2022-08-26T00:45:55.682Z,86.22
2022-08-26T00:51:31.577Z,86.45
2022-08-26T00:57:08.657Z,86.50
2022-08-26T01:05:44.205Z,86.96
2022-08-26T01:14:10.237Z,87.23
2022-08-26T01:16:56.810Z,87.31
2022-08-26T01:25:25.152Z,87.47
2022-08-26T01:31:00.409Z,87.08
2022-08-26T01:36:35.664Z,86.74
2022-08-26T01:39:21.134Z,86.68
2022-08-26T01:44:56.953Z,86.54
2022-08-26T01:47:41.547Z,86.52
2022-08-26T01:53:16.865Z,86.37
2022-08-26T01:56:01.428Z,86.22
2022-08-26T02:01:38.620Z,86.54
2022-08-26T02:04:24.198Z,86.72
2022-08-26T02:07:09.067Z,86.74
2022-08-26T02:12:44.408Z,86.80
2022-08-26T02:15:28.919Z,86.85
2022-08-26T02:21:04.267Z,86.97
2022-08-26T02:26:42.101Z,87.04
2022-08-26T02:32:18.538Z,87.33
2022-08-26T02:37:54.001Z,87.85
2022-08-26T02:43:32.679Z,88.20
2022-08-26T02:46:21.372Z,88.39
2022-08-26T02:52:02.122Z,88.80
2022-08-26T02:57:37.429Z,89.11
2022-08-26T03:03:13.080Z,89.28
2022-08-26T03:05:58.120Z,89.18
2022-08-26T03:11:33.461Z,89.07
2022-08-26T03:17:08.760Z,89.38
2022-08-26T03:22:45.653Z,89.66
2022-08-26T03:25:30.198Z,89.73
2022-08-26T03:31:05.840Z,89.98
2022-08-26T03:33:51.354Z,90.02
2022-08-26T03:36:36.668Z,89.93
2022-08-26T03:42:12.033Z,90.02
2022-08-26T03:47:47.681Z,90.34
2022-08-26T03:53:24.672Z,90.59
2022-08-26T03:56:09.222Z,90.75
2022-08-26T04:01:45.886Z,90.80
2022-08-26T04:07:23.650Z,90.97
2022-08-26T04:12:59.298Z,90.92
2022-08-26T04:15:43.969Z,91.06
2022-08-26T04:21:20.055Z,91.17
2022-08-26T04:26:55.802Z,90.98
2022-08-26T04:32:32.243Z,90.93
2022-08-26T04:38:07.563Z,90.89
2022-08-26T04:43:42.975Z,90.93
2022-08-26T04:46:27.533Z,90.81
2022-08-26T04:52:03.077Z,90.51
2022-08-26T04:57:38.461Z,90.59
2022-08-26T05:03:14.344Z,90.42
2022-08-26T05:05:58.886Z,90.33
2022-08-26T05:11:34.365Z,90.09
2022-08-26T05:17:09.914Z,89.78
2022-08-26T05:22:54.206Z,89.50
2022-08-26T05:25:39.065Z,89.28
2022-08-26T05:31:15.086Z,88.77
2022-08-26T05:36:52.456Z,88.29
2022-08-26T05:42:27.800Z,87.75
2022-08-26T05:48:03.560Z,87.38
2022-08-26T05:53:43.896Z,86.97
2022-08-26T05:56:34.983Z,86.85
2022-08-26T06:02:12.454Z,86.86
2022-08-26T06:07:48.914Z,86.71
2022-08-26T06:13:25.716Z,86.75
2022-08-26T06:16:10.332Z,86.66
2022-08-26T06:21:45.908Z,86.12
2022-08-26T06:27:21.558Z,85.53
2022-08-26T06:32:56.881Z,84.84
2022-08-26T06:35:42.282Z,84.51
2022-08-26T06:41:17.520Z,83.93
2022-08-26T06:47:01.781Z,83.20
2022-08-26T06:52:46.058Z,82.00
2022-08-26T06:55:30.891Z,81.67
2022-08-26T07:01:11.397Z,80.32
2022-08-26T07:09:41.438Z,78.82
2022-08-26T07:15:16.830Z,78.01
2022-08-26T07:20:52.139Z,77.49
2022-08-26T07:26:27.429Z,76.70
2022-08-26T07:32:03.852Z,76.13
2022-08-26T07:37:39.414Z,75.64
2022-08-26T07:43:14.889Z,75.05
2022-08-26T07:45:59.503Z,74.70
2022-08-26T07:51:34.977Z,74.20
2022-08-26T07:57:12.147Z,74.00
2022-08-26T08:02:49.722Z,73.43
2022-08-26T08:05:34.282Z,73.01
2022-08-26T08:11:09.981Z,71.87
2022-08-26T08:16:46.839Z,71.36
2022-08-26T08:22:22.358Z,70.89
2022-08-26T08:27:57.585Z,70.50
2022-08-26T08:33:32.949Z,69.81
2022-08-26T08:36:20.491Z,69.60
2022-08-26T08:41:57.920Z,68.86
2022-08-26T08:47:33.899Z,68.54
2022-08-26T08:53:09.415Z,68.12
2022-08-26T08:55:53.950Z,67.93
2022-08-26T09:01:29.609Z,67.18
2022-08-26T09:07:05.053Z,66.43
2022-08-26T09:12:41.596Z,66.39
2022-08-26T09:15:28.688Z,66.01
2022-08-26T09:21:05.961Z,64.58
2022-08-26T09:26:41.243Z,64.05
2022-08-26T09:32:16.487Z,63.42
2022-08-26T09:37:52.864Z,61.60
2022-08-26T09:43:28.067Z,60.79
2022-08-26T09:46:12.588Z,60.66
2022-08-26T09:51:50.193Z,60.96
2022-08-26T09:57:25.474Z,61.02
2022-08-26T10:03:00.727Z,61.53
2022-08-26T10:05:45.214Z,61.55
2022-08-26T10:11:20.479Z,61.60
2022-08-26T10:14:08.153Z,61.96
2022-08-26T10:16:52.891Z,62.25
2022-08-26T10:22:28.393Z,62.43
2022-08-26T10:28:03.951Z,63.33
2022-08-26T10:33:39.270Z,63.85
2022-08-26T10:36:23.753Z,63.89
2022-08-26T10:41:59.111Z,64.26
2022-08-26T10:47:34.483Z,67.91
2022-08-26T10:53:11.758Z,71.50
2022-08-26T10:55:56.259Z,73.01
2022-08-26T11:01:34.362Z,74.41
2022-08-26T11:07:18.547Z,74.30
2022-08-26T11:12:56.531Z,73.81
2022-08-26T11:15:41.002Z,74.92
2022-08-26T11:21:17.327Z,76.48
2022-08-26T11:27:01.620Z,76.73
2022-08-26T11:32:37.607Z,77.33
2022-08-26T11:35:23.265Z,77.93
2022-08-26T11:40:58.567Z,81.63
2022-08-26T11:46:33.839Z,89.13
2022-08-26T11:52:09.443Z,90.83
2022-08-26T11:57:44.923Z,91.86
2022-08-26T12:03:20.572Z,92.43
2022-08-26T12:06:07.798Z,92.58
2022-08-26T12:11:52.032Z,92.84
2022-08-26T12:20:32.933Z,94.04
2022-08-26T12:31:59.544Z,94.68
2022-08-26T12:43:24.586Z,95.47
2022-08-26T12:46:12.144Z,95.73
2022-08-26T12:51:49.562Z,96.04
2022-08-26T13:03:11.461Z,96.36
2022-08-26T13:08:49.546Z,96.79
2022-08-26T13:14:24.925Z,96.79
2022-08-26T13:17:09.431Z,96.89
2022-08-26T13:22:46.606Z,96.78
2022-08-26T13:25:40.113Z,96.82
2022-08-26T13:28:25.851Z,96.73
2022-08-26T13:34:02.137Z,96.46
2022-08-26T13:36:46.663Z,96.40
2022-08-26T13:42:30.249Z,96.37
2022-08-26T13:56:37.854Z,96.50
2022-08-26T14:02:21.534Z,96.63
2022-08-26T14:10:52.400Z,96.78
2022-08-26T14:19:18.830Z,96.80
2022-08-26T14:25:06.151Z,96.88
2022-08-26T14:36:22.942Z,97.05
2022-08-26T14:41:58.487Z,97.13
2022-08-26T14:47:33.782Z,97.11
2022-08-26T14:53:10.039Z,97.20
2022-08-26T14:55:54.561Z,97.14
2022-08-26T15:01:36.047Z,97.12
2022-08-26T15:15:43.747Z,96.82
2022-08-26T15:21:19.920Z,96.57
2022-08-26T15:35:27.384Z,95.82
2022-08-26T15:41:11.682Z,95.38
2022-08-26T15:46:47.828Z,94.51
2022-08-26T15:52:23.216Z,93.29
2022-08-26T16:00:49.398Z,92.83
2022-08-26T16:06:25.902Z,92.76
2022-08-26T16:12:01.427Z,92.87
2022-08-26T16:17:38.886Z,93.17
2022-08-26T16:26:05.069Z,93.32
2022-08-26T16:31:49.436Z,93.48
2022-08-26T16:37:24.857Z,93.65
2022-08-26T16:51:32.355Z,94.25
2022-08-26T17:00:08.371Z,94.58
2022-08-26T17:05:44.671Z,94.69
2022-08-26T17:11:20.306Z,94.89
2022-08-26T17:16:55.607Z,95.05
2022-08-26T17:22:34.543Z,95.31
2022-08-26T17:28:13.290Z,95.51
2022-08-26T17:33:53.186Z,95.68
2022-08-26T17:36:42.494Z,95.64
2022-08-26T17:42:20.466Z,95.72
2022-08-26T17:47:55.757Z,95.89
2022-08-26T17:53:31.144Z,95.99
2022-08-26T17:56:15.829Z,96.08
2022-08-26T18:01:51.304Z,96.16
2022-08-26T18:07:26.888Z,96.26
2022-08-26T18:13:02.269Z,96.40
2022-08-26T18:15:46.951Z,96.48
2022-08-26T18:21:22.438Z,96.60
2022-08-26T18:26:57.688Z,96.75
2022-08-26T18:32:35.805Z,96.79
2022-08-26T18:38:13.369Z,96.84
2022-08-26T18:43:49.069Z,96.95
2022-08-26T18:46:33.598Z,97.03
2022-08-26T18:54:59.850Z,97.13
2022-08-26T18:57:44.435Z,97.10
2022-08-26T19:03:19.992Z,97.16
2022-08-26T19:06:04.552Z,97.25
2022-08-26T19:11:42.234Z,97.34
2022-08-26T19:17:18.552Z,97.43
2022-08-26T19:23:02.693Z,97.45
2022-08-26T19:25:54.572Z,97.49
2022-08-26T19:31:29.917Z,97.50
2022-08-26T19:37:05.325Z,97.53
2022-08-26T19:39:51.290Z,97.56
2022-08-26T19:45:26.607Z,97.58
2022-08-26T19:51:01.836Z,97.70
2022-08-26T19:56:37.141Z,97.76
2022-08-26T20:02:12.969Z,97.75
2022-08-26T20:07:48.944Z,97.84
2022-08-26T20:13:24.576Z,97.92
2022-08-26T20:16:09.247Z,98.03
2022-08-26T20:21:44.808Z,98.09
2022-08-26T20:27:20.403Z,98.06
2022-08-26T20:32:55.841Z,98.08
2022-08-26T20:35:40.368Z,98.11
2022-08-26T20:41:15.638Z,98.18
2022-08-26T20:46:50.885Z,98.24
2022-08-26T20:52:26.149Z,98.23
2022-08-26T20:58:01.429Z,98.26
2022-08-26T21:06:27.463Z,98.36
2022-08-26T21:12:02.742Z,98.37
2022-08-26T21:17:38.039Z,98.44
2022-08-26T21:23:13.713Z,98.47
2022-08-26T21:25:58.242Z,98.49
2022-08-26T21:31:33.554Z,98.52
2022-08-26T21:37:08.996Z,98.50
2022-08-26T21:42:53.132Z,98.53
2022-08-26T21:45:37.629Z,98.52
2022-08-26T21:51:13.024Z,98.49
2022-08-26T21:56:48.299Z,98.49
2022-08-26T22:02:24.501Z,98.50
2022-08-26T22:07:59.830Z,98.49
2022-08-26T22:13:35.151Z,98.46
2022-08-26T22:16:19.758Z,98.45
2022-08-26T22:21:55.072Z,98.43
2022-08-26T22:27:30.354Z,98.46
2022-08-26T22:33:07.625Z,98.52
2022-08-26T22:35:52.137Z,98.57
2022-08-26T22:41:27.441Z,98.60
2022-08-26T22:47:02.939Z,98.57
2022-08-26T22:52:38.244Z,98.62
2022-08-26T22:58:13.515Z,98.76
2022-08-26T23:03:48.979Z,98.91
2022-08-26T23:06:33.514Z,98.95
2022-08-26T23:12:10.823Z,98.99
2022-08-26T23:17:46.154Z,99.03
2022-08-26T23:23:21.352Z,99.08
2022-08-26T23:26:06.449Z,99.14
2022-08-26T23:31:41.911Z,99.11
2022-08-26T23:37:17.305Z,99.19
